sensor_id;sensor_type;location;lat;lon;timestamp;pressure;altitude;pressure_sealevel;temperature;humidity
47280;BME280;34064;44.942;0.008;2023-12-20T00:01:45;99724.16;;;10.92;73.41
47280;BME280;34064;44.942;0.008;2023-12-20T00:04:11;99724.94;;;10.95;73.63
47280;BME280;34064;44.942;0.008;2023-12-20T00:06:37;99722.94;;;10.98;73.39
47280;BME280;34064;44.942;0.008;2023-12-20T00:09:04;99710.09;;;11.05;73.44
47280;BME280;34064;44.942;0.008;2023-12-20T00:11:30;99714.66;;;11.03;73.60
47280;BME280;34064;44.942;0.008;2023-12-20T00:13:56;99709.34;;;11.03;73.60
47280;BME280;34064;44.942;0.008;2023-12-20T00:16:23;99709.16;;;11.06;73.47
47280;BME280;34064;44.942;0.008;2023-12-20T00:18:49;99709.81;;;11.10;73.60
47280;BME280;34064;44.942;0.008;2023-12-20T00:21:15;99700.78;;;11.12;73.53
47280;BME280;34064;44.942;0.008;2023-12-20T00:23:41;99703.44;;;11.12;73.62
47280;BME280;34064;44.942;0.008;2023-12-20T00:26:08;99701.53;;;11.14;73.60
47280;BME280;34064;44.942;0.008;2023-12-20T00:28:34;99698.03;;;11.14;73.44
47280;BME280;34064;44.942;0.008;2023-12-20T00:31:00;99687.09;;;11.18;73.58
47280;BME280;34064;44.942;0.008;2023-12-20T00:33:27;99691.66;;;11.16;73.52
47280;BME280;34064;44.942;0.008;2023-12-20T00:35:54;99692.41;;;11.18;73.60
47280;BME280;34064;44.942;0.008;2023-12-20T00:38:20;99687.09;;;11.18;73.71
47280;BME280;34064;44.942;0.008;2023-12-20T00:40:46;99690.47;;;11.20;73.74
47280;BME280;34064;44.942;0.008;2023-12-20T00:43:13;99681.56;;;11.21;73.80
47280;BME280;34064;44.942;0.008;2023-12-20T00:45:39;99675.22;;;11.24;74.00
47280;BME280;34064;44.942;0.008;2023-12-20T00:48:06;99676.03;;;11.24;73.93
47280;BME280;34064;44.942;0.008;2023-12-20T00:50:32;99671.38;;;11.28;73.94
47280;BME280;34064;44.942;0.008;2023-12-20T00:52:58;99663.09;;;11.33;73.95
47280;BME280;34064;44.942;0.008;2023-12-20T00:55:25;99669.94;;;11.37;74.18
47280;BME280;34064;44.942;0.008;2023-12-20T00:57:51;99656.50;;;11.38;73.97
47280;BME280;34064;44.942;0.008;2023-12-20T01:00:19;99656.41;;;11.40;74.04
47280;BME280;34064;44.942;0.008;2023-12-20T01:02:45;99647.47;;;11.41;74.01
47280;BME280;34064;44.942;0.008;2023-12-20T01:05:15;99643.84;;;11.42;74.15
47280;BME280;34064;44.942;0.008;2023-12-20T01:07:41;99642.78;;;11.45;74.16
47280;BME280;34064;44.942;0.008;2023-12-20T01:10:08;99646.22;;;11.47;74.22
47280;BME280;34064;44.942;0.008;2023-12-20T01:12:36;99640.78;;;11.48;74.10
47280;BME280;34064;44.942;0.008;2023-12-20T01:15:03;99638.03;;;11.50;74.07
47280;BME280;34064;44.942;0.008;2023-12-20T01:17:29;99644.00;;;11.53;74.19
47280;BME280;34064;44.942;0.008;2023-12-20T01:19:55;99635.91;;;11.55;74.33
47280;BME280;34064;44.942;0.008;2023-12-20T01:22:22;99651.03;;;11.54;74.36
47280;BME280;34064;44.942;0.008;2023-12-20T01:24:48;99649.97;;;11.57;74.29
47280;BME280;34064;44.942;0.008;2023-12-20T01:27:14;99649.13;;;11.57;74.40
47280;BME280;34064;44.942;0.008;2023-12-20T01:29:41;99648.91;;;11.60;74.36
47280;BME280;34064;44.942;0.008;2023-12-20T01:32:07;99648.69;;;11.63;74.25
47280;BME280;34064;44.942;0.008;2023-12-20T01:34:33;99649.34;;;11.66;74.29
47280;BME280;34064;44.942;0.008;2023-12-20T01:37:00;99648.28;;;11.69;74.30
47280;BME280;34064;44.942;0.008;2023-12-20T01:39:26;99639.34;;;11.70;74.47
47280;BME280;34064;44.942;0.008;2023-12-20T01:41:52;99639.03;;;11.75;74.54
47280;BME280;34064;44.942;0.008;2023-12-20T01:44:19;99633.56;;;11.76;74.48
47280;BME280;34064;44.942;0.008;2023-12-20T01:46:46;99639.56;;;11.80;74.47
47280;BME280;34064;44.942;0.008;2023-12-20T01:49:14;99638.38;;;11.84;74.45
47280;BME280;34064;44.942;0.008;2023-12-20T01:51:41;99634.66;;;11.86;74.58
47280;BME280;34064;44.942;0.008;2023-12-20T01:54:08;99638.94;;;11.89;74.60
47280;BME280;34064;44.942;0.008;2023-12-20T01:56:34;99640.66;;;11.90;74.68
47280;BME280;34064;44.942;0.008;2023-12-20T01:59:01;99634.25;;;11.93;74.60
47280;BME280;34064;44.942;0.008;2023-12-20T02:01:28;99633.31;;;11.94;74.58
47280;BME280;34064;44.942;0.008;2023-12-20T02:03:56;99635.72;;;11.97;74.57
47280;BME280;34064;44.942;0.008;2023-12-20T02:06:23;99633.66;;;12.02;74.66
47280;BME280;34064;44.942;0.008;2023-12-20T02:08:51;99628.31;;;12.02;74.64
47280;BME280;34064;44.942;0.008;2023-12-20T02:11:18;99636.81;;;12.07;74.81
47280;BME280;34064;44.942;0.008;2023-12-20T02:13:44;99630.44;;;12.10;74.76
47280;BME280;34064;44.942;0.008;2023-12-20T02:16:10;99636.31;;;12.15;74.63
47280;BME280;34064;44.942;0.008;2023-12-20T02:18:37;99631.41;;;12.22;74.89
47280;BME280;34064;44.942;0.008;2023-12-20T02:21:05;99637.44;;;12.24;74.87
47280;BME280;34064;44.942;0.008;2023-12-20T02:23:31;99641.75;;;12.26;74.83
47280;BME280;34064;44.942;0.008;2023-12-20T02:25:58;99639.78;;;12.28;75.00
47280;BME280;34064;44.942;0.008;2023-12-20T02:28:24;99642.38;;;12.30;75.16
47280;BME280;34064;44.942;0.008;2023-12-20T02:30:50;99644.78;;;12.33;75.09
47280;BME280;34064;44.942;0.008;2023-12-20T02:33:17;99643.84;;;12.34;75.26
47280;BME280;34064;44.942;0.008;2023-12-20T02:35:43;99640.97;;;12.37;75.25
47280;BME280;34064;44.942;0.008;2023-12-20T02:38:09;99635.53;;;12.39;75.07
47280;BME280;34064;44.942;0.008;2023-12-20T02:40:36;99634.22;;;12.44;75.37
47280;BME280;34064;44.942;0.008;2023-12-20T02:43:02;99641.28;;;12.45;75.46
47280;BME280;34064;44.942;0.008;2023-12-20T02:45:28;99653.63;;;12.46;75.61
47280;BME280;34064;44.942;0.008;2023-12-20T02:47:55;99656.81;;;12.52;75.64
47280;BME280;34064;44.942;0.008;2023-12-20T02:50:21;99653.72;;;12.58;75.49
47280;BME280;34064;44.942;0.008;2023-12-20T02:52:47;99653.53;;;12.61;75.67
47280;BME280;34064;44.942;0.008;2023-12-20T02:55:14;99647.00;;;12.65;75.74
47280;BME280;34064;44.942;0.008;2023-12-20T02:57:40;99662.97;;;12.65;75.54
47280;BME280;34064;44.942;0.008;2023-12-20T03:00:09;99664.25;;;12.72;75.36
47280;BME280;34064;44.942;0.008;2023-12-20T03:02:36;99665.19;;;12.71;75.43
47280;BME280;34064;44.942;0.008;2023-12-20T03:05:03;99651.66;;;12.74;75.40
47280;BME280;34064;44.942;0.008;2023-12-20T03:07:29;99649.00;;;12.74;75.12
47280;BME280;34064;44.942;0.008;2023-12-20T03:09:56;99658.06;;;12.72;75.11
47280;BME280;34064;44.942;0.008;2023-12-20T03:12:22;99658.81;;;12.74;75.07
47280;BME280;34064;44.942;0.008;2023-12-20T03:14:49;99665.53;;;12.79;74.72
47280;BME280;34064;44.942;0.008;2023-12-20T03:17:15;99676.84;;;12.70;74.76
47280;BME280;34064;44.942;0.008;2023-12-20T03:19:42;99685.56;;;12.72;74.62
47280;BME280;34064;44.942;0.008;2023-12-20T03:22:08;99676.09;;;12.68;74.93
47280;BME280;34064;44.942;0.008;2023-12-20T03:24:34;99683.66;;;12.74;74.59
47280;BME280;34064;44.942;0.008;2023-12-20T03:27:01;99703.72;;;12.67;74.72
47280;BME280;34064;44.942;0.008;2023-12-20T03:29:27;99713.44;;;12.68;74.50
47280;BME280;34064;44.942;0.008;2023-12-20T03:31:53;99715.34;;;12.66;74.54
47280;BME280;34064;44.942;0.008;2023-12-20T03:34:19;99710.13;;;12.64;74.35
47280;BME280;34064;44.942;0.008;2023-12-20T03:36:46;99721.00;;;12.61;74.51
47280;BME280;34064;44.942;0.008;2023-12-20T03:39:13;99731.03;;;12.58;74.20
47280;BME280;34064;44.942;0.008;2023-12-20T03:41:41;99731.78;;;12.60;74.24
47280;BME280;34064;44.942;0.008;2023-12-20T03:44:08;99736.34;;;12.58;74.32
47280;BME280;34064;44.942;0.008;2023-12-20T03:46:34;99750.75;;;12.55;74.06
47280;BME280;34064;44.942;0.008;2023-12-20T03:49:00;99754.06;;;12.59;74.09
47280;BME280;34064;44.942;0.008;2023-12-20T03:51:26;99752.34;;;12.58;74.02
47280;BME280;34064;44.942;0.008;2023-12-20T03:53:53;99750.44;;;12.60;73.89
47280;BME280;34064;44.942;0.008;2023-12-20T03:56:19;99757.25;;;12.51;74.29
47280;BME280;34064;44.942;0.008;2023-12-20T03:58:45;99758.09;;;12.52;73.90
47280;BME280;34064;44.942;0.008;2023-12-20T04:01:12;99754.47;;;12.53;74.13
47280;BME280;34064;44.942;0.008;2023-12-20T04:03:39;99763.41;;;12.52;73.90
47280;BME280;34064;44.942;0.008;2023-12-20T04:06:06;99775.25;;;12.47;74.00
47280;BME280;34064;44.942;0.008;2023-12-20T04:08:32;99783.06;;;12.51;73.97
47280;BME280;34064;44.942;0.008;2023-12-20T04:10:59;99783.47;;;12.44;74.09
47280;BME280;34064;44.942;0.008;2023-12-20T04:13:25;99785.16;;;12.45;73.98
47280;BME280;34064;44.942;0.008;2023-12-20T04:15:51;99792.63;;;12.40;74.09
47280;BME280;34064;44.942;0.008;2023-12-20T04:18:18;99794.34;;;12.41;74.05
47280;BME280;34064;44.942;0.008;2023-12-20T04:20:44;99800.19;;;12.46;73.89
47280;BME280;34064;44.942;0.008;2023-12-20T04:23:11;99807.44;;;12.44;73.79
47280;BME280;34064;44.942;0.008;2023-12-20T04:25:38;99807.44;;;12.44;73.76
47280;BME280;34064;44.942;0.008;2023-12-20T04:28:04;99813.72;;;12.43;73.91
47280;BME280;34064;44.942;0.008;2023-12-20T04:30:30;99814.78;;;12.41;73.84
47280;BME280;34064;44.942;0.008;2023-12-20T04:32:57;99813.09;;;12.40;73.86
47280;BME280;34064;44.942;0.008;2023-12-20T04:35:23;99813.00;;;12.41;73.73
47280;BME280;34064;44.942;0.008;2023-12-20T04:37:49;99812.00;;;12.42;73.57
47280;BME280;34064;44.942;0.008;2023-12-20T04:40:16;99825.00;;;12.34;73.71
47280;BME280;34064;44.942;0.008;2023-12-20T04:42:42;99820.25;;;12.39;73.64
47280;BME280;34064;44.942;0.008;2023-12-20T04:45:08;99829.06;;;12.40;73.49
47280;BME280;34064;44.942;0.008;2023-12-20T04:47:35;99829.00;;;12.41;73.45
47280;BME280;34064;44.942;0.008;2023-12-20T04:50:01;99831.44;;;12.44;73.14
47280;BME280;34064;44.942;0.008;2023-12-20T04:52:28;99832.94;;;12.48;72.98
47280;BME280;34064;44.942;0.008;2023-12-20T04:54:54;99839.84;;;12.38;73.16
47280;BME280;34064;44.942;0.008;2023-12-20T04:57:21;99841.88;;;12.35;73.41
47280;BME280;34064;44.942;0.008;2023-12-20T04:59:47;99848.28;;;12.32;73.38
47280;BME280;34064;44.942;0.008;2023-12-20T05:02:13;99844.97;;;12.41;73.01
47280;BME280;34064;44.942;0.008;2023-12-20T05:04:39;99852.41;;;12.36;73.25
47280;BME280;34064;44.942;0.008;2023-12-20T05:07:06;99857.94;;;12.33;73.14
47280;BME280;34064;44.942;0.008;2023-12-20T05:09:32;99854.25;;;12.36;73.27
47280;BME280;34064;44.942;0.008;2023-12-20T05:11:59;99863.81;;;12.38;73.15
47280;BME280;34064;44.942;0.008;2023-12-20T05:14:26;99868.59;;;12.33;73.26
47280;BME280;34064;44.942;0.008;2023-12-20T05:16:52;99864.13;;;12.33;73.07
47280;BME280;34064;44.942;0.008;2023-12-20T05:19:19;99881.06;;;12.32;73.09
47280;BME280;34064;44.942;0.008;2023-12-20T05:21:45;99878.53;;;12.31;73.08
47280;BME280;34064;44.942;0.008;2023-12-20T05:24:11;99883.44;;;12.37;72.67
47280;BME280;34064;44.942;0.008;2023-12-20T05:26:38;99898.13;;;12.30;72.95
47280;BME280;34064;44.942;0.008;2023-12-20T05:29:04;99894.72;;;12.28;72.86
47280;BME280;34064;44.942;0.008;2023-12-20T05:31:31;99900.97;;;12.27;72.83
47280;BME280;34064;44.942;0.008;2023-12-20T05:33:57;99904.53;;;12.27;72.69
47280;BME280;34064;44.942;0.008;2023-12-20T05:36:24;99905.47;;;12.26;72.86
47280;BME280;34064;44.942;0.008;2023-12-20T05:38:50;99910.03;;;12.24;72.71
47280;BME280;34064;44.942;0.008;2023-12-20T05:41:17;99912.59;;;12.26;72.56
47280;BME280;34064;44.942;0.008;2023-12-20T05:43:43;99916.03;;;12.28;72.27
47280;BME280;34064;44.942;0.008;2023-12-20T05:46:11;99910.69;;;12.28;71.86
47280;BME280;34064;44.942;0.008;2023-12-20T05:48:38;99923.84;;;12.16;72.10
47280;BME280;34064;44.942;0.008;2023-12-20T05:51:04;99936.22;;;12.17;72.20
47280;BME280;34064;44.942;0.008;2023-12-20T05:53:31;99938.03;;;12.17;72.30
47280;BME280;34064;44.942;0.008;2023-12-20T05:55:57;99941.00;;;12.12;72.39
47280;BME280;34064;44.942;0.008;2023-12-20T05:58:23;99947.47;;;12.08;72.40
47280;BME280;34064;44.942;0.008;2023-12-20T06:00:50;99949.38;;;12.06;72.65
47280;BME280;34064;44.942;0.008;2023-12-20T06:03:16;99960.03;;;12.06;72.40
47280;BME280;34064;44.942;0.008;2023-12-20T06:05:42;99960.91;;;12.07;72.39
47280;BME280;34064;44.942;0.008;2023-12-20T06:08:09;99974.22;;;12.07;72.40
47280;BME280;34064;44.942;0.008;2023-12-20T06:10:35;99968.31;;;12.01;72.52
47280;BME280;34064;44.942;0.008;2023-12-20T06:13:01;99972.63;;;12.04;72.44
47280;BME280;34064;44.942;0.008;2023-12-20T06:15:29;99977.84;;;12.06;72.41
47280;BME280;34064;44.942;0.008;2023-12-20T06:17:55;99980.78;;;12.01;72.43
47280;BME280;34064;44.942;0.008;2023-12-20T06:20:21;99983.63;;;11.98;72.31
47280;BME280;34064;44.942;0.008;2023-12-20T06:22:48;99994.09;;;12.01;72.43
47280;BME280;34064;44.942;0.008;2023-12-20T06:25:14;99996.16;;;11.96;72.28
47280;BME280;34064;44.942;0.008;2023-12-20T06:27:40;99997.72;;;12.00;72.10
47280;BME280;34064;44.942;0.008;2023-12-20T06:30:07;100004.75;;;12.01;71.90
47280;BME280;34064;44.942;0.008;2023-12-20T06:32:35;100016.13;;;11.89;71.95
47280;BME280;34064;44.942;0.008;2023-12-20T06:35:02;100031.34;;;11.86;71.87
47280;BME280;34064;44.942;0.008;2023-12-20T06:37:28;100036.13;;;11.81;71.88
47280;BME280;34064;44.942;0.008;2023-12-20T06:39:54;100042.00;;;11.72;71.89
47280;BME280;34064;44.942;0.008;2023-12-20T06:42:21;100043.91;;;11.70;71.86
47280;BME280;34064;44.942;0.008;2023-12-20T06:44:47;100053.06;;;11.66;71.81
47280;BME280;34064;44.942;0.008;2023-12-20T06:47:13;100059.38;;;11.63;71.87
47280;BME280;34064;44.942;0.008;2023-12-20T06:49:40;100068.53;;;11.59;71.58
47280;BME280;34064;44.942;0.008;2023-12-20T06:52:06;100071.66;;;11.51;71.82
47280;BME280;34064;44.942;0.008;2023-12-20T06:54:33;100073.53;;;11.49;71.92
47280;BME280;34064;44.942;0.008;2023-12-20T06:57:00;100088.16;;;11.42;71.72
47280;BME280;34064;44.942;0.008;2023-12-20T06:59:29;100090.06;;;11.40;71.52
47280;BME280;34064;44.942;0.008;2023-12-20T07:01:55;100091.97;;;11.38;71.45
47280;BME280;34064;44.942;0.008;2023-12-20T07:04:21;100091.97;;;11.38;71.56
47280;BME280;34064;44.942;0.008;2023-12-20T07:06:48;100092.81;;;11.38;71.15
47280;BME280;34064;44.942;0.008;2023-12-20T07:09:18;100102.28;;;11.28;71.18
47280;BME280;34064;44.942;0.008;2023-12-20T07:11:44;100106.75;;;11.28;71.22
47280;BME280;34064;44.942;0.008;2023-12-20T07:14:10;100100.84;;;11.22;71.43
47280;BME280;34064;44.942;0.008;2023-12-20T07:16:36;100106.09;;;11.24;71.31
47280;BME280;34064;44.942;0.008;2023-12-20T07:19:03;100105.59;;;11.17;70.82
47280;BME280;34064;44.942;0.008;2023-12-20T07:21:29;100105.94;;;11.11;70.78
47280;BME280;34064;44.942;0.008;2023-12-20T07:23:55;100118.81;;;11.03;70.93
47280;BME280;34064;44.942;0.008;2023-12-20T07:26:22;100116.34;;;11.00;70.88
47280;BME280;34064;44.942;0.008;2023-12-20T07:28:49;100121.06;;;10.95;70.96
47280;BME280;34064;44.942;0.008;2023-12-20T07:31:18;100124.84;;;10.90;71.03
47280;BME280;34064;44.942;0.008;2023-12-20T07:33:45;100122.47;;;10.86;71.19
47280;BME280;34064;44.942;0.008;2023-12-20T07:36:12;100119.28;;;10.79;70.68
47280;BME280;34064;44.942;0.008;2023-12-20T07:38:38;100134.63;;;10.74;70.79
47280;BME280;34064;44.942;0.008;2023-12-20T07:41:04;100138.56;;;10.67;71.03
47280;BME280;34064;44.942;0.008;2023-12-20T07:43:31;100143.88;;;10.67;70.84
47280;BME280;34064;44.942;0.008;2023-12-20T07:45:57;100149.72;;;10.57;70.34
47280;BME280;34064;44.942;0.008;2023-12-20T07:48:23;100160.50;;;10.54;70.69
47280;BME280;34064;44.942;0.008;2023-12-20T07:50:50;100167.72;;;10.52;71.05
47280;BME280;34064;44.942;0.008;2023-12-20T07:53:16;100174.97;;;10.49;70.80
47280;BME280;34064;44.942;0.008;2023-12-20T07:55:42;100181.50;;;10.43;70.45
47280;BME280;34064;44.942;0.008;2023-12-20T07:58:09;100192.38;;;10.38;70.23
47280;BME280;34064;44.942;0.008;2023-12-20T08:00:35;100195.06;;;10.37;70.42
47280;BME280;34064;44.942;0.008;2023-12-20T08:03:01;100197.13;;;10.32;69.75
47280;BME280;34064;44.942;0.008;2023-12-20T08:05:29;100216.03;;;10.25;70.10
47280;BME280;34064;44.942;0.008;2023-12-20T08:07:55;100223.13;;;10.25;70.03
47280;BME280;34064;44.942;0.008;2023-12-20T08:10:22;100220.88;;;10.17;69.71
47280;BME280;34064;44.942;0.008;2023-12-20T08:12:48;100231.69;;;10.14;69.77
47280;BME280;34064;44.942;0.008;2023-12-20T08:15:14;100239.94;;;10.08;70.14
47280;BME280;34064;44.942;0.008;2023-12-20T08:17:41;100239.09;;;10.07;70.00
47280;BME280;34064;44.942;0.008;2023-12-20T08:20:08;100242.78;;;10.05;69.80
47280;BME280;34064;44.942;0.008;2023-12-20T08:22:34;100244.66;;;10.03;70.00
47280;BME280;34064;44.942;0.008;2023-12-20T08:25:01;100242.59;;;10.08;69.52
47280;BME280;34064;44.942;0.008;2023-12-20T08:27:27;100240.88;;;10.07;69.14
47280;BME280;34064;44.942;0.008;2023-12-20T08:29:53;100252.53;;;10.04;69.25
47280;BME280;34064;44.942;0.008;2023-12-20T08:32:19;100249.16;;;10.01;69.43
47280;BME280;34064;44.942;0.008;2023-12-20T08:34:46;100244.78;;;9.99;69.36
47280;BME280;34064;44.942;0.008;2023-12-20T08:37:12;100244.78;;;9.99;69.27
47280;BME280;34064;44.942;0.008;2023-12-20T08:39:38;100249.31;;;9.97;69.22
47280;BME280;34064;44.942;0.008;2023-12-20T08:42:05;100250.44;;;9.93;69.27
47280;BME280;34064;44.942;0.008;2023-12-20T08:44:31;100250.97;;;10.00;69.00
47280;BME280;34064;44.942;0.008;2023-12-20T08:46:58;100253.88;;;9.95;69.33
47280;BME280;34064;44.942;0.008;2023-12-20T08:49:24;100263.16;;;10.04;68.90
47280;BME280;34064;44.942;0.008;2023-12-20T08:51:51;100263.38;;;9.99;69.08
47280;BME280;34064;44.942;0.008;2023-12-20T08:54:17;100252.69;;;10.01;68.83
47280;BME280;34064;44.942;0.008;2023-12-20T08:56:45;100272.28;;;9.98;68.77
47280;BME280;34064;44.942;0.008;2023-12-20T08:59:12;100268.63;;;10.01;68.55
47280;BME280;34064;44.942;0.008;2023-12-20T09:01:38;100280.09;;;10.02;68.78
47280;BME280;34064;44.942;0.008;2023-12-20T09:04:05;100266.25;;;10.12;68.17
47280;BME280;34064;44.942;0.008;2023-12-20T09:06:32;100278.06;;;10.07;68.41
47280;BME280;34064;44.942;0.008;2023-12-20T09:08:58;100276.88;;;10.12;68.68
47280;BME280;34064;44.942;0.008;2023-12-20T09:11:25;100291.19;;;10.10;68.79
47280;BME280;34064;44.942;0.008;2023-12-20T09:13:51;100286.50;;;10.15;68.28
47280;BME280;34064;44.942;0.008;2023-12-20T09:16:17;100292.56;;;10.17;68.43
47280;BME280;34064;44.942;0.008;2023-12-20T09:18:43;100281.72;;;10.22;68.22
47280;BME280;34064;44.942;0.008;2023-12-20T09:21:10;100292.09;;;10.26;68.39
47280;BME280;34064;44.942;0.008;2023-12-20T09:23:36;100293.53;;;10.34;67.61
47280;BME280;34064;44.942;0.008;2023-12-20T09:26:03;100304.69;;;10.40;67.77
47280;BME280;34064;44.942;0.008;2023-12-20T09:28:29;100302.91;;;10.41;67.88
47280;BME280;34064;44.942;0.008;2023-12-20T09:30:56;100314.38;;;10.41;67.69
47280;BME280;34064;44.942;0.008;2023-12-20T09:33:23;100310.66;;;10.45;67.68
47280;BME280;34064;44.942;0.008;2023-12-20T09:35:50;100312.88;;;10.53;67.00
47280;BME280;34064;44.942;0.008;2023-12-20T09:38:17;100314.78;;;10.51;67.22
47280;BME280;34064;44.942;0.008;2023-12-20T09:40:43;100320.09;;;10.51;67.72
47280;BME280;34064;44.942;0.008;2023-12-20T09:43:15;100313.44;;;10.60;67.62
47280;BME280;34064;44.942;0.008;2023-12-20T09:45:43;100319.53;;;10.62;67.27
47280;BME280;34064;44.942;0.008;2023-12-20T09:48:11;100319.38;;;10.65;67.03
47280;BME280;34064;44.942;0.008;2023-12-20T09:50:41;100316.91;;;10.78;66.00
47280;BME280;34064;44.942;0.008;2023-12-20T09:53:09;100313.56;;;10.74;66.39
47280;BME280;34064;44.942;0.008;2023-12-20T09:55:37;100317.53;;;10.83;66.37
47280;BME280;34064;44.942;0.008;2023-12-20T09:58:04;100311.09;;;10.87;66.62
47280;BME280;34064;44.942;0.008;2023-12-20T10:00:31;100317.81;;;10.95;65.75
47280;BME280;34064;44.942;0.008;2023-12-20T10:02:59;100318.50;;;10.98;66.10
47280;BME280;34064;44.942;0.008;2023-12-20T10:05:30;100317.56;;;10.99;65.94
47280;BME280;34064;44.942;0.008;2023-12-20T10:07:57;100317.31;;;11.04;65.70
47280;BME280;34064;44.942;0.008;2023-12-20T10:10:24;100306.50;;;11.07;65.34
47280;BME280;34064;44.942;0.008;2023-12-20T10:13:11;100313.22;;;11.14;65.43
47280;BME280;34064;44.942;0.008;2023-12-20T10:15:38;100309.59;;;11.15;65.73
47280;BME280;34064;44.942;0.008;2023-12-20T10:18:05;100307.72;;;11.17;65.80
47280;BME280;34064;44.942;0.008;2023-12-20T10:20:32;100308.25;;;11.24;65.70
47280;BME280;34064;44.942;0.008;2023-12-20T10:22:59;100307.91;;;11.30;65.22
47280;BME280;34064;44.942;0.008;2023-12-20T10:25:26;100313.91;;;11.34;65.10
47280;BME280;34064;44.942;0.008;2023-12-20T10:28:14;100313.38;;;11.43;64.60
47280;BME280;34064;44.942;0.008;2023-12-20T10:30:41;100302.38;;;11.49;64.25
47280;BME280;34064;44.942;0.008;2023-12-20T10:33:08;100302.38;;;11.49;64.28
47280;BME280;34064;44.942;0.008;2023-12-20T10:35:36;100306.00;;;11.48;64.40
47280;BME280;34064;44.942;0.008;2023-12-20T10:38:06;100296.53;;;11.59;64.27
47280;BME280;34064;44.942;0.008;2023-12-20T10:40:35;100292.94;;;11.60;64.50
47280;BME280;34064;44.942;0.008;2023-12-20T10:43:04;100292.78;;;11.63;64.41
47280;BME280;34064;44.942;0.008;2023-12-20T10:45:31;100290.53;;;11.71;64.24
47280;BME280;34064;44.942;0.008;2023-12-20T10:47:58;100269.72;;;11.78;63.38
47280;BME280;34064;44.942;0.008;2023-12-20T10:50:28;100278.41;;;11.81;63.25
47280;BME280;34064;44.942;0.008;2023-12-20T10:52:56;100268.31;;;11.86;62.92
47280;BME280;34064;44.942;0.008;2023-12-20T10:55:23;100266.09;;;11.95;62.89
47280;BME280;34064;44.942;0.008;2023-12-20T10:57:51;100261.19;;;12.03;62.53
47280;BME280;34064;44.942;0.008;2023-12-20T11:00:19;100245.59;;;12.11;62.51
47280;BME280;34064;44.942;0.008;2023-12-20T11:02:49;100239.53;;;12.24;62.75
47280;BME280;34064;44.942;0.008;2023-12-20T11:07:52;100229.75;;;12.24;62.99
47280;BME280;34064;44.942;0.008;2023-12-20T11:10:26;100227.56;;;12.31;63.19
47280;BME280;34064;44.942;0.008;2023-12-20T11:13:22;100219.84;;;12.55;62.14
47280;BME280;34064;44.942;0.008;2023-12-20T11:15:50;100224.03;;;12.59;62.10
47280;BME280;34064;44.942;0.008;2023-12-20T11:18:16;100215.84;;;12.62;61.14
47280;BME280;34064;44.942;0.008;2023-12-20T11:20:42;100213.06;;;12.64;61.60
47280;BME280;34064;44.942;0.008;2023-12-20T11:23:09;100212.31;;;12.62;61.66
47280;BME280;34064;44.942;0.008;2023-12-20T11:25:50;100206.13;;;12.61;61.95
47280;BME280;34064;44.942;0.008;2023-12-20T11:28:21;100215.97;;;12.61;61.76
47280;BME280;34064;44.942;0.008;2023-12-20T11:30:51;100206.13;;;12.61;62.43
47280;BME280;34064;44.942;0.008;2023-12-20T11:33:21;100193.34;;;12.67;62.48
47280;BME280;34064;44.942;0.008;2023-12-20T11:35:47;100187.72;;;12.71;62.06
47280;BME280;34064;44.942;0.008;2023-12-20T11:38:14;100185.75;;;12.75;61.32
47280;BME280;34064;44.942;0.008;2023-12-20T11:40:42;100181.84;;;12.66;62.00
47280;BME280;34064;44.942;0.008;2023-12-20T11:43:09;100187.19;;;12.66;62.36
47280;BME280;34064;44.942;0.008;2023-12-20T11:45:36;100192.13;;;12.72;62.49
47280;BME280;34064;44.942;0.008;2023-12-20T11:48:03;100171.91;;;12.83;62.12
47280;BME280;34064;44.942;0.008;2023-12-20T11:50:30;100167.03;;;12.89;61.72
47280;BME280;34064;44.942;0.008;2023-12-20T11:52:57;100165.97;;;12.92;62.06
47280;BME280;34064;44.942;0.008;2023-12-20T11:55:23;100165.97;;;12.92;62.01
47280;BME280;34064;44.942;0.008;2023-12-20T11:57:53;100156.44;;;13.02;61.74
47280;BME280;34064;44.942;0.008;2023-12-20T12:00:20;100141.00;;;13.07;61.22
47280;BME280;34064;44.942;0.008;2023-12-20T12:02:58;100138.88;;;13.13;61.50
47280;BME280;34064;44.942;0.008;2023-12-20T12:05:24;100120.22;;;13.25;61.14
47280;BME280;34064;44.942;0.008;2023-12-20T12:07:50;100105.97;;;13.39;60.79
47280;BME280;34064;44.942;0.008;2023-12-20T12:10:17;100111.13;;;13.43;60.05
47280;BME280;34064;44.942;0.008;2023-12-20T12:12:43;100107.63;;;13.55;58.86
47280;BME280;34064;44.942;0.008;2023-12-20T12:15:10;100105.47;;;13.60;58.96
47280;BME280;34064;44.942;0.008;2023-12-20T12:17:36;100102.06;;;13.58;58.19
47280;BME280;34064;44.942;0.008;2023-12-20T12:20:06;100099.19;;;13.61;58.27
47280;BME280;34064;44.942;0.008;2023-12-20T12:22:32;100092.13;;;13.60;59.45
47280;BME280;34064;44.942;0.008;2023-12-20T12:25:12;100083.81;;;13.65;59.46
47280;BME280;34064;44.942;0.008;2023-12-20T12:27:42;100079.53;;;13.62;59.52
47280;BME280;34064;44.942;0.008;2023-12-20T12:30:09;100091.81;;;13.52;59.70
47280;BME280;34064;44.942;0.008;2023-12-20T12:32:37;100104.59;;;13.47;60.23
47280;BME280;34064;44.942;0.008;2023-12-20T12:35:05;100091.94;;;13.63;59.32
47280;BME280;34064;44.942;0.008;2023-12-20T12:37:36;100086.91;;;13.71;58.64
47280;BME280;34064;44.942;0.008;2023-12-20T12:40:06;100083.94;;;13.76;58.84
47280;BME280;34064;44.942;0.008;2023-12-20T12:42:32;100083.59;;;13.81;58.47
47280;BME280;34064;44.942;0.008;2023-12-20T12:44:59;100078.38;;;13.92;58.18
47280;BME280;34064;44.942;0.008;2023-12-20T12:47:25;100080.28;;;13.90;57.76
47280;BME280;34064;44.942;0.008;2023-12-20T12:49:52;100086.78;;;13.73;58.45
47280;BME280;34064;44.942;0.008;2023-12-20T12:52:19;100092.91;;;13.62;58.92
47280;BME280;34064;44.942;0.008;2023-12-20T12:54:46;100100.34;;;13.57;59.44
47280;BME280;34064;44.942;0.008;2023-12-20T12:57:13;100086.59;;;13.50;58.83